createdAt,value
2024-01-11T00:01:29.749Z,-11.50
2024-01-11T00:03:31.574Z,-11.60
2024-01-11T00:05:33.578Z,-11.60
2024-01-11T00:07:35.867Z,-11.60
2024-01-11T00:09:42.347Z,-11.70
2024-01-11T00:11:44.370Z,-11.60
2024-01-11T00:13:46.191Z,-11.60
2024-01-11T00:15:50.449Z,-11.60
2024-01-11T00:17:52.406Z,-11.70
2024-01-11T00:19:54.425Z,-11.80
2024-01-11T00:21:56.371Z,-11.80
2024-01-11T00:23:58.126Z,-11.80
2024-01-11T00:26:00.850Z,-11.80
2024-01-11T00:28:03.384Z,-11.70
2024-01-11T00:30:06.465Z,-11.80
2024-01-11T00:32:08.420Z,-11.80
2024-01-11T00:34:10.329Z,-11.90
2024-01-11T00:36:12.168Z,-11.90
2024-01-11T00:38:14.182Z,-11.60
2024-01-11T00:40:16.002Z,-11.50
2024-01-11T00:42:18.128Z,-11.60
2024-01-11T00:44:19.979Z,-11.60
2024-01-11T00:46:21.985Z,-11.70
2024-01-11T00:48:24.744Z,-11.80
2024-01-11T00:50:27.317Z,-11.90
2024-01-11T00:52:29.349Z,-11.70
2024-01-11T00:54:31.518Z,-11.70
2024-01-11T00:56:33.341Z,-11.70
2024-01-11T00:58:35.162Z,-11.80
2024-01-11T01:00:36.995Z,-11.80
2024-01-11T01:02:38.961Z,-11.80
2024-01-11T01:04:41.314Z,-11.70
2024-01-11T01:06:43.934Z,-11.70
2024-01-11T01:08:46.061Z,-11.70
2024-01-11T01:10:49.024Z,-11.70
2024-01-11T01:12:50.743Z,-11.80
2024-01-11T01:14:53.189Z,-11.90
2024-01-11T01:16:55.155Z,-11.90
2024-01-11T01:18:57.028Z,-12.00
2024-01-11T01:21:01.826Z,-12.00
2024-01-11T01:23:03.818Z,-12.00
2024-01-11T01:25:06.147Z,-12.00
2024-01-11T01:27:08.103Z,-11.90
2024-01-11T01:29:10.396Z,-11.70
2024-01-11T01:31:12.546Z,-11.80
2024-01-11T01:33:15.096Z,-11.90
2024-01-11T01:35:17.680Z,-11.90
2024-01-11T01:37:19.488Z,-11.90
2024-01-11T01:39:21.191Z,-11.90
2024-01-11T01:41:23.104Z,-12.00
2024-01-11T01:43:24.915Z,-12.00
2024-01-11T01:45:26.929Z,-12.00
2024-01-11T01:47:29.449Z,-11.90
2024-01-11T01:49:31.860Z,-12.00
2024-01-11T01:51:34.797Z,-12.00
2024-01-11T01:53:37.316Z,-12.00
2024-01-11T01:55:39.261Z,-12.00
2024-01-11T01:57:42.791Z,-12.00
2024-01-11T01:59:44.767Z,-12.00
2024-01-11T02:01:46.660Z,-11.80
2024-01-11T02:03:51.139Z,-11.70
2024-01-11T02:05:54.855Z,-11.80
2024-01-11T02:07:58.843Z,-11.90
2024-01-11T02:10:00.715Z,-11.90
2024-01-11T02:12:04.014Z,-12.00
2024-01-11T02:14:06.054Z,-12.00
2024-01-11T02:16:08.275Z,-12.10
2024-01-11T02:18:11.235Z,-12.00
2024-01-11T02:20:13.579Z,-11.90
2024-01-11T02:22:35.868Z,-11.90
2024-01-11T02:24:37.652Z,-12.00
2024-01-11T02:27:00.173Z,-11.80
2024-01-11T02:29:02.805Z,-11.70
2024-01-11T02:31:05.001Z,-11.90
2024-01-11T02:33:07.749Z,-12.00
2024-01-11T02:35:10.098Z,-12.00
2024-01-11T02:37:12.310Z,-12.00
2024-01-11T02:39:17.401Z,-12.10
2024-01-11T02:41:20.394Z,-12.00
2024-01-11T02:43:22.251Z,-12.10
2024-01-11T02:45:24.201Z,-12.10
2024-01-11T02:47:26.097Z,-12.00
2024-01-11T02:49:28.026Z,-11.80
2024-01-11T02:51:29.919Z,-11.80
2024-01-11T02:53:35.635Z,-11.80
2024-01-11T02:55:37.724Z,-11.90
2024-01-11T02:57:39.512Z,-12.00
2024-01-11T02:59:41.820Z,-12.00
2024-01-11T03:01:43.586Z,-12.00
2024-01-11T03:03:46.655Z,-12.00
2024-01-11T03:05:49.399Z,-11.90
2024-01-11T03:07:51.321Z,-11.80
2024-01-11T03:09:53.066Z,-11.80
2024-01-11T03:11:54.824Z,-11.90
2024-01-11T03:13:57.152Z,-12.00
2024-01-11T03:15:59.250Z,-12.00
2024-01-11T03:18:01.174Z,-12.10
2024-01-11T03:20:06.054Z,-12.00
2024-01-11T03:22:08.203Z,-12.00
2024-01-11T03:24:10.101Z,-12.00
2024-01-11T03:26:16.967Z,-12.00
2024-01-11T03:28:19.019Z,-11.80
2024-01-11T03:30:20.878Z,-11.70
2024-01-11T03:32:22.861Z,-11.60
2024-01-11T03:34:24.919Z,-11.70
2024-01-11T03:36:26.908Z,-11.70
2024-01-11T03:38:28.856Z,-11.80
2024-01-11T03:40:30.644Z,-11.70
2024-01-11T03:42:32.611Z,-11.80
2024-01-11T03:44:34.468Z,-11.80
2024-01-11T03:46:36.247Z,-11.70
2024-01-11T03:48:38.179Z,-11.60
2024-01-11T03:50:40.427Z,-11.80
2024-01-11T03:52:43.723Z,-11.70
2024-01-11T03:54:45.950Z,-11.70
2024-01-11T03:56:47.889Z,-11.60
2024-01-11T03:58:49.783Z,-11.50
2024-01-11T04:00:51.730Z,-11.40
2024-01-11T04:02:53.571Z,-11.50
2024-01-11T04:04:55.712Z,-11.60
2024-01-11T04:06:57.632Z,-11.50
2024-01-11T04:08:59.378Z,-11.40
2024-01-11T04:11:06.078Z,-11.40
2024-01-11T04:13:11.096Z,-11.40
2024-01-11T04:15:15.815Z,-11.50
2024-01-11T04:17:17.635Z,-11.40
2024-01-11T04:19:22.534Z,-11.40
2024-01-11T04:21:29.588Z,-11.50
2024-01-11T04:23:31.921Z,-11.60
2024-01-11T04:25:33.683Z,-11.70
2024-01-11T04:27:35.461Z,-11.70
2024-01-11T04:29:37.253Z,-11.60
2024-01-11T04:31:39.003Z,-11.70
2024-01-11T04:33:46.607Z,-11.70
2024-01-11T04:35:48.679Z,-11.80
2024-01-11T04:37:50.480Z,-11.80
2024-01-11T04:39:52.299Z,-11.90
2024-01-11T04:41:54.109Z,-11.90
2024-01-11T04:43:56.083Z,-11.90
2024-01-11T04:45:57.895Z,-11.90
2024-01-11T04:48:00.008Z,-11.90
2024-01-11T04:50:02.070Z,-12.00
2024-01-11T04:52:04.103Z,-11.90
2024-01-11T04:54:05.978Z,-11.90
2024-01-11T04:56:09.162Z,-11.80
2024-01-11T04:58:11.015Z,-11.80
2024-01-11T05:00:13.301Z,-11.80
2024-01-11T05:02:15.340Z,-11.70
2024-01-11T05:04:17.276Z,-11.60
2024-01-11T05:06:20.518Z,-11.60
2024-01-11T05:08:23.160Z,-11.70
2024-01-11T05:10:24.925Z,-11.70
2024-01-11T05:12:26.790Z,-11.70
2024-01-11T05:14:28.665Z,-11.70
2024-01-11T05:16:30.678Z,-11.70
2024-01-11T05:18:34.976Z,-11.70
2024-01-11T05:20:37.514Z,-11.80
2024-01-11T05:22:39.516Z,-11.70
2024-01-11T05:24:41.280Z,-11.70
2024-01-11T05:26:43.170Z,-11.70
2024-01-11T05:28:45.363Z,-11.80
2024-01-11T05:30:47.207Z,-11.70
2024-01-11T05:32:49.383Z,-11.80
2024-01-11T05:34:51.255Z,-11.90
2024-01-11T05:36:53.057Z,-12.00
2024-01-11T05:38:54.778Z,-11.90
2024-01-11T05:40:57.076Z,-12.00
2024-01-11T05:42:58.850Z,-12.00
2024-01-11T05:45:01.101Z,-11.90
2024-01-11T05:47:03.066Z,-11.80
2024-01-11T05:49:04.970Z,-11.90
2024-01-11T05:51:07.329Z,-11.90
2024-01-11T05:53:09.423Z,-11.90
